sensor_id;sensor_type;location;lat;lon;timestamp;pressure;altitude;pressure_sealevel;temperature
61703;BMP280;47622;47.726;3.298;2023-02-01T00:01:12;100280.00;;;4.50
61703;BMP280;47622;47.726;3.298;2023-02-01T00:03:37;100278.06;;;4.46
61703;BMP280;47622;47.726;3.298;2023-02-01T00:06:03;100275.69;;;4.44
61703;BMP280;47622;47.726;3.298;2023-02-01T00:08:29;100265.66;;;4.48
61703;BMP280;47622;47.726;3.298;2023-02-01T00:11:04;100264.06;;;4.47
61703;BMP280;47622;47.726;3.298;2023-02-01T00:13:31;100256.97;;;4.42
61703;BMP280;47622;47.726;3.298;2023-02-01T00:16:10;100257.63;;;4.49
61703;BMP280;47622;47.726;3.298;2023-02-01T00:18:37;100247.94;;;4.56
61703;BMP280;47622;47.726;3.298;2023-02-01T00:21:03;100251.44;;;4.50
61703;BMP280;47622;47.726;3.298;2023-02-01T00:23:32;100251.19;;;4.52
61703;BMP280;47622;47.726;3.298;2023-02-01T00:26:01;100240.28;;;4.38
61703;BMP280;47622;47.726;3.298;2023-02-01T00:28:26;100244.97;;;4.41
61703;BMP280;47622;47.726;3.298;2023-02-01T00:31:00;100245.91;;;4.35
61703;BMP280;47622;47.726;3.298;2023-02-01T00:33:26;100239.13;;;4.34
61703;BMP280;47622;47.726;3.298;2023-02-01T00:35:59;100238.09;;;4.35
61703;BMP280;47622;47.726;3.298;2023-02-01T00:38:26;100246.69;;;4.36
61703;BMP280;47622;47.726;3.298;2023-02-01T00:40:51;100247.47;;;4.36
61703;BMP280;47622;47.726;3.298;2023-02-01T00:43:17;100243.41;;;4.40
61703;BMP280;47622;47.726;3.298;2023-02-01T00:45:43;100245.88;;;4.47
61703;BMP280;47622;47.726;3.298;2023-02-01T00:48:10;100234.16;;;4.44
61703;BMP280;47622;47.726;3.298;2023-02-01T00:50:35;100241.16;;;4.44
61703;BMP280;47622;47.726;3.298;2023-02-01T00:53:01;100239.34;;;4.44
61703;BMP280;47622;47.726;3.298;2023-02-01T00:55:27;100243.41;;;4.40
61703;BMP280;47622;47.726;3.298;2023-02-01T00:57:52;100253.34;;;4.43
61703;BMP280;47622;47.726;3.298;2023-02-01T01:00:18;100241.59;;;4.29
61703;BMP280;47622;47.726;3.298;2023-02-01T01:02:44;100240.28;;;4.38
61703;BMP280;47622;47.726;3.298;2023-02-01T01:05:09;100239.56;;;4.31
61703;BMP280;47622;47.726;3.298;2023-02-01T01:07:35;100226.50;;;4.26
61703;BMP280;47622;47.726;3.298;2023-02-01T01:10:01;100241.59;;;4.29
61703;BMP280;47622;47.726;3.298;2023-02-01T01:12:26;100233.25;;;4.27
61703;BMP280;47622;47.726;3.298;2023-02-01T01:14:52;100226.03;;;4.29
61703;BMP280;47622;47.726;3.298;2023-02-01T01:17:17;100236.19;;;4.30
61703;BMP280;47622;47.726;3.298;2023-02-01T01:19:43;100238.78;;;4.30
61703;BMP280;47622;47.726;3.298;2023-02-01T01:22:09;100240.59;;;4.30
61703;BMP280;47622;47.726;3.298;2023-02-01T01:24:34;100238.09;;;4.23
61703;BMP280;47622;47.726;3.298;2023-02-01T01:27:00;100243.50;;;4.22
61703;BMP280;47622;47.726;3.298;2023-02-01T01:29:26;100247.59;;;4.29
61703;BMP280;47622;47.726;3.298;2023-02-01T01:31:52;100248.84;;;4.27
61703;BMP280;47622;47.726;3.298;2023-02-01T01:34:17;100247.16;;;4.32
61703;BMP280;47622;47.726;3.298;2023-02-01T01:36:43;100251.78;;;4.42
61703;BMP280;47622;47.726;3.298;2023-02-01T01:39:09;100251.78;;;4.42
61703;BMP280;47622;47.726;3.298;2023-02-01T01:41:34;100260.25;;;4.49
61703;BMP280;47622;47.726;3.298;2023-02-01T01:44:05;100253.91;;;4.45
61703;BMP280;47622;47.726;3.298;2023-02-01T01:46:36;100249.72;;;4.44
61703;BMP280;47622;47.726;3.298;2023-02-01T01:49:17;100251.78;;;4.42
61703;BMP280;47622;47.726;3.298;2023-02-01T01:51:49;100251.66;;;4.49
61703;BMP280;47622;47.726;3.298;2023-02-01T01:54:24;100256.50;;;4.45
61703;BMP280;47622;47.726;3.298;2023-02-01T01:56:56;100253.66;;;4.47
61703;BMP280;47622;47.726;3.298;2023-02-01T01:59:24;100242.50;;;4.46
61703;BMP280;47622;47.726;3.298;2023-02-01T02:01:50;100240.13;;;4.45
61703;BMP280;47622;47.726;3.298;2023-02-01T02:04:16;100235.28;;;4.48
61703;BMP280;47622;47.726;3.298;2023-02-01T02:06:56;100239.47;;;4.49
61703;BMP280;47622;47.726;3.298;2023-02-01T02:09:23;100238.91;;;4.47
61703;BMP280;47622;47.726;3.298;2023-02-01T02:11:49;100238.44;;;4.50
61703;BMP280;47622;47.726;3.298;2023-02-01T02:14:17;100228.06;;;4.50
61703;BMP280;47622;47.726;3.298;2023-02-01T02:17:23;100235.28;;;4.48
61703;BMP280;47622;47.726;3.298;2023-02-01T02:22:59;100241.16;;;4.55
61703;BMP280;47622;47.726;3.298;2023-02-01T02:31:36;100241.38;;;4.66
61703;BMP280;47622;47.726;3.298;2023-02-01T02:42:29;100233.44;;;4.60
61703;BMP280;47622;47.726;3.298;2023-02-01T02:45:22;100239.31;;;4.68
61703;BMP280;47622;47.726;3.298;2023-02-01T02:51:34;100239.78;;;4.65
61703;BMP280;47622;47.726;3.298;2023-02-01T02:54:26;100243.63;;;4.74
61703;BMP280;47622;47.726;3.298;2023-02-01T02:57:14;100236.84;;;4.73
61703;BMP280;47622;47.726;3.298;2023-02-01T03:00:03;100242.03;;;4.73
61703;BMP280;47622;47.726;3.298;2023-02-01T03:02:48;100234.13;;;4.68
61703;BMP280;47622;47.726;3.298;2023-02-01T03:05:37;100232.09;;;4.70
61703;BMP280;47622;47.726;3.298;2023-02-01T03:08:11;100224.09;;;4.71
61703;BMP280;47622;47.726;3.298;2023-02-01T03:13:33;100230.66;;;4.74
61703;BMP280;47622;47.726;3.298;2023-02-01T03:19:01;100221.00;;;4.86
61703;BMP280;47622;47.726;3.298;2023-02-01T03:27:03;100217.28;;;4.82
61703;BMP280;47622;47.726;3.298;2023-02-01T03:29:37;100209.72;;;4.80
61703;BMP280;47622;47.726;3.298;2023-02-01T03:32:04;100200.03;;;4.76
61703;BMP280;47622;47.726;3.298;2023-02-01T03:34:29;100207.31;;;4.79
61703;BMP280;47622;47.726;3.298;2023-02-01T03:37:04;100211.97;;;4.77
61703;BMP280;47622;47.726;3.298;2023-02-01T03:42:27;100220.31;;;4.79
61703;BMP280;47622;47.726;3.298;2023-02-01T03:45:20;100224.44;;;4.75
61703;BMP280;47622;47.726;3.298;2023-02-01T03:47:46;100231.19;;;4.76
61703;BMP280;47622;47.726;3.298;2023-02-01T03:50:18;100226.00;;;4.76
61703;BMP280;47622;47.726;3.298;2023-02-01T03:53:07;100221.25;;;4.73
61703;BMP280;47622;47.726;3.298;2023-02-01T03:55:34;100234.81;;;4.75
61703;BMP280;47622;47.726;3.298;2023-02-01T03:58:06;100236.25;;;4.82
61703;BMP280;47622;47.726;3.298;2023-02-01T04:00:32;100230.84;;;4.72
61703;BMP280;47622;47.726;3.298;2023-02-01T04:02:58;100230.75;;;4.67
61703;BMP280;47622;47.726;3.298;2023-02-01T04:05:24;100236.06;;;4.72
61703;BMP280;47622;47.726;3.298;2023-02-01T04:07:49;100243.13;;;4.77
61703;BMP280;47622;47.726;3.298;2023-02-01T04:10:15;100237.94;;;4.77
61703;BMP280;47622;47.726;3.298;2023-02-01T04:12:41;100238.72;;;4.77
61703;BMP280;47622;47.726;3.298;2023-02-01T04:15:07;100241.34;;;4.77
61703;BMP280;47622;47.726;3.298;2023-02-01T04:17:33;100245.41;;;4.85
61703;BMP280;47622;47.726;3.298;2023-02-01T04:19:59;100235.47;;;4.82
61703;BMP280;47622;47.726;3.298;2023-02-01T04:22:25;100237.94;;;4.88
61703;BMP280;47622;47.726;3.298;2023-02-01T04:24:50;100236.84;;;4.84
61703;BMP280;47622;47.726;3.298;2023-02-01T04:27:16;100243.81;;;4.84
61703;BMP280;47622;47.726;3.298;2023-02-01T04:29:41;100241.09;;;4.79
61703;BMP280;47622;47.726;3.298;2023-02-01T04:32:07;100231.63;;;4.84
61703;BMP280;47622;47.726;3.298;2023-02-01T04:34:33;100228.22;;;4.84
61703;BMP280;47622;47.726;3.298;2023-02-01T04:36:59;100221.91;;;4.80
61703;BMP280;47622;47.726;3.298;2023-02-01T04:39:24;100228.50;;;4.71
61703;BMP280;47622;47.726;3.298;2023-02-01T04:41:50;100237.75;;;4.67
61703;BMP280;47622;47.726;3.298;2023-02-01T04:44:17;100237.19;;;4.65
61703;BMP280;47622;47.726;3.298;2023-02-01T04:46:44;100243.06;;;4.60
61703;BMP280;47622;47.726;3.298;2023-02-01T04:49:10;100236.53;;;4.57
61703;BMP280;47622;47.726;3.298;2023-02-01T04:51:37;100231.00;;;4.54
61703;BMP280;47622;47.726;3.298;2023-02-01T04:54:03;100238.44;;;4.50
61703;BMP280;47622;47.726;3.298;2023-02-01T04:56:29;100242.72;;;4.56
61703;BMP280;47622;47.726;3.298;2023-02-01T04:58:55;100249.97;;;4.54
61703;BMP280;47622;47.726;3.298;2023-02-01T05:01:21;100253.69;;;4.58
61703;BMP280;47622;47.726;3.298;2023-02-01T05:03:47;100259.22;;;4.50
61703;BMP280;47622;47.726;3.298;2023-02-01T05:06:13;100257.06;;;4.59
61703;BMP280;47622;47.726;3.298;2023-02-01T05:08:38;100253.91;;;4.57
61703;BMP280;47622;47.726;3.298;2023-02-01T05:11:05;100248.47;;;4.58
61703;BMP280;47622;47.726;3.298;2023-02-01T05:13:30;100263.19;;;4.53
61703;BMP280;47622;47.726;3.298;2023-02-01T05:16:14;100263.97;;;4.53
61703;BMP280;47622;47.726;3.298;2023-02-01T05:18:40;100261.25;;;4.60
61703;BMP280;47622;47.726;3.298;2023-02-01T05:21:06;100268.25;;;4.59
61703;BMP280;47622;47.726;3.298;2023-02-01T05:23:31;100272.41;;;4.60
61703;BMP280;47622;47.726;3.298;2023-02-01T05:26:01;100270.59;;;4.61
61703;BMP280;47622;47.726;3.298;2023-02-01T05:28:27;100275.13;;;4.66
61703;BMP280;47622;47.726;3.298;2023-02-01T05:30:54;100274.09;;;4.67
61703;BMP280;47622;47.726;3.298;2023-02-01T05:33:20;100267.91;;;4.68
61703;BMP280;47622;47.726;3.298;2023-02-01T05:35:45;100277.72;;;4.66
61703;BMP280;47622;47.726;3.298;2023-02-01T05:38:11;100278.09;;;4.69
61703;BMP280;47622;47.726;3.298;2023-02-01T05:40:37;100269.38;;;4.64
61703;BMP280;47622;47.726;3.298;2023-02-01T05:43:02;100275.69;;;4.68
61703;BMP280;47622;47.726;3.298;2023-02-01T05:45:28;100274.09;;;4.67
61703;BMP280;47622;47.726;3.298;2023-02-01T05:47:53;100275.47;;;4.69
61703;BMP280;47622;47.726;3.298;2023-02-01T05:50:19;100268.47;;;4.70
61703;BMP280;47622;47.726;3.298;2023-02-01T05:52:44;100264.31;;;4.69
61703;BMP280;47622;47.726;3.298;2023-02-01T05:55:10;100260.69;;;4.70
61703;BMP280;47622;47.726;3.298;2023-02-01T05:57:36;100258.09;;;4.70
61703;BMP280;47622;47.726;3.298;2023-02-01T06:00:03;100271.88;;;4.70
61703;BMP280;47622;47.726;3.298;2023-02-01T06:02:28;100273.69;;;4.70
61703;BMP280;47622;47.726;3.298;2023-02-01T06:04:54;100281.91;;;4.67
61703;BMP280;47622;47.726;3.298;2023-02-01T06:07:20;100282.91;;;4.66
61703;BMP280;47622;47.726;3.298;2023-02-01T06:09:45;100295.00;;;4.60
61703;BMP280;47622;47.726;3.298;2023-02-01T06:12:11;100297.38;;;4.62
61703;BMP280;47622;47.726;3.298;2023-02-01T06:14:37;100306.19;;;4.60
61703;BMP280;47622;47.726;3.298;2023-02-01T06:17:03;100319.72;;;4.63
61703;BMP280;47622;47.726;3.298;2023-02-01T06:19:28;100299.53;;;4.65
61703;BMP280;47622;47.726;3.298;2023-02-01T06:21:54;100302.13;;;4.65
61703;BMP280;47622;47.726;3.298;2023-02-01T06:24:20;100306.31;;;4.66
61703;BMP280;47622;47.726;3.298;2023-02-01T06:26:45;100303.28;;;4.69
61703;BMP280;47622;47.726;3.298;2023-02-01T06:29:11;100310.47;;;4.67
61703;BMP280;47622;47.726;3.298;2023-02-01T06:31:37;100312.94;;;4.62
61703;BMP280;47622;47.726;3.298;2023-02-01T06:34:02;100322.66;;;4.66
61703;BMP280;47622;47.726;3.298;2023-02-01T06:36:28;100321.31;;;4.64
61703;BMP280;47622;47.726;3.298;2023-02-01T06:38:55;100331.72;;;4.64
61703;BMP280;47622;47.726;3.298;2023-02-01T06:41:22;100325.38;;;4.59
61703;BMP280;47622;47.726;3.298;2023-02-01T06:43:48;100325.38;;;4.59
61703;BMP280;47622;47.726;3.298;2023-02-01T06:46:14;100326.94;;;4.60
61703;BMP280;47622;47.726;3.298;2023-02-01T06:48:39;100313.41;;;4.58
61703;BMP280;47622;47.726;3.298;2023-02-01T06:51:05;100297.38;;;4.62
61703;BMP280;47622;47.726;3.298;2023-02-01T06:53:31;100298.94;;;4.63
61703;BMP280;47622;47.726;3.298;2023-02-01T06:55:58;100312.38;;;4.59
61703;BMP280;47622;47.726;3.298;2023-02-01T06:58:28;100318.59;;;4.58
61703;BMP280;47622;47.726;3.298;2023-02-01T07:00:54;100321.75;;;4.60
61703;BMP280;47622;47.726;3.298;2023-02-01T07:03:19;100313.41;;;4.58
61703;BMP280;47622;47.726;3.298;2023-02-01T07:05:45;100333.16;;;4.59
61703;BMP280;47622;47.726;3.298;2023-02-01T07:08:10;100342.53;;;4.60
61703;BMP280;47622;47.726;3.298;2023-02-01T07:10:36;100339.06;;;4.55
61703;BMP280;47622;47.726;3.298;2023-02-01T07:13:02;100344.81;;;4.57
61703;BMP280;47622;47.726;3.298;2023-02-01T07:15:28;100345.03;;;4.55
61703;BMP280;47622;47.726;3.298;2023-02-01T07:17:56;100356.53;;;4.59
61703;BMP280;47622;47.726;3.298;2023-02-01T07:20:22;100348.97;;;4.58
61703;BMP280;47622;47.726;3.298;2023-02-01T07:22:48;100352.94;;;4.60
61703;BMP280;47622;47.726;3.298;2023-02-01T07:25:14;100339.94;;;4.60
61703;BMP280;47622;47.726;3.298;2023-02-01T07:27:39;100345.13;;;4.60
61703;BMP280;47622;47.726;3.298;2023-02-01T07:30:06;100347.28;;;4.64
61703;BMP280;47622;47.726;3.298;2023-02-01T07:32:32;100355.28;;;4.62
61703;BMP280;47622;47.726;3.298;2023-02-01T07:34:57;100348.09;;;4.64
61703;BMP280;47622;47.726;3.298;2023-02-01T07:37:24;100359.03;;;4.66
61703;BMP280;47622;47.726;3.298;2023-02-01T07:39:50;100356.09;;;4.63
61703;BMP280;47622;47.726;3.298;2023-02-01T07:42:16;100363.31;;;4.60
61703;BMP280;47622;47.726;3.298;2023-02-01T07:44:42;100380.59;;;4.67
61703;BMP280;47622;47.726;3.298;2023-02-01T07:47:07;100372.81;;;4.67
61703;BMP280;47622;47.726;3.298;2023-02-01T07:49:33;100387.97;;;4.70
61703;BMP280;47622;47.726;3.298;2023-02-01T07:51:58;100386.28;;;4.75
61703;BMP280;47622;47.726;3.298;2023-02-01T07:54:24;100395.41;;;4.78
61703;BMP280;47622;47.726;3.298;2023-02-01T07:56:49;100384.56;;;4.81
61703;BMP280;47622;47.726;3.298;2023-02-01T07:59:15;100391.69;;;4.85
61703;BMP280;47622;47.726;3.298;2023-02-01T08:01:41;100399.38;;;4.80
61703;BMP280;47622;47.726;3.298;2023-02-01T08:04:09;100397.22;;;4.89
61703;BMP280;47622;47.726;3.298;2023-02-01T08:06:36;100399.69;;;4.84
61703;BMP280;47622;47.726;3.298;2023-02-01T08:09:02;100394.50;;;4.84
61703;BMP280;47622;47.726;3.298;2023-02-01T08:11:28;100382.78;;;4.93
61703;BMP280;47622;47.726;3.298;2023-02-01T08:13:54;100378.94;;;4.96
61703;BMP280;47622;47.726;3.298;2023-02-01T08:16:20;100385.72;;;5.08
61703;BMP280;47622;47.726;3.298;2023-02-01T08:18:46;100374.75;;;5.06
61703;BMP280;47622;47.726;3.298;2023-02-01T08:21:17;100370.13;;;5.08
61703;BMP280;47622;47.726;3.298;2023-02-01T08:23:44;100382.56;;;5.06
61703;BMP280;47622;47.726;3.298;2023-02-01T08:26:15;100383.53;;;5.05
61703;BMP280;47622;47.726;3.298;2023-02-01T08:28:44;100384.13;;;5.07
61703;BMP280;47622;47.726;3.298;2023-02-01T08:31:13;100390.44;;;5.11
61703;BMP280;47622;47.726;3.298;2023-02-01T08:33:40;100394.28;;;5.21
61703;BMP280;47622;47.726;3.298;2023-02-01T08:36:08;100383.44;;;5.24
61703;BMP280;47622;47.726;3.298;2023-02-01T08:38:38;100389.06;;;5.21
61703;BMP280;47622;47.726;3.298;2023-02-01T08:41:13;100399.69;;;5.31
61703;BMP280;47622;47.726;3.298;2023-02-01T08:43:40;100406.59;;;5.25
61703;BMP280;47622;47.726;3.298;2023-02-01T08:46:06;100403.78;;;5.27
61703;BMP280;47622;47.726;3.298;2023-02-01T08:48:32;100397.66;;;5.33
61703;BMP280;47622;47.726;3.298;2023-02-01T08:51:05;100408.50;;;5.41
61703;BMP280;47622;47.726;3.298;2023-02-01T08:53:31;100408.72;;;5.40
61703;BMP280;47622;47.726;3.298;2023-02-01T08:55:56;100403.97;;;5.49
61703;BMP280;47622;47.726;3.298;2023-02-01T08:58:22;100404.16;;;5.47
61703;BMP280;47622;47.726;3.298;2023-02-01T09:00:48;100406.88;;;5.52
61703;BMP280;47622;47.726;3.298;2023-02-01T09:03:14;100413.66;;;5.53
61703;BMP280;47622;47.726;3.298;2023-02-01T09:05:40;100407.69;;;5.53
61703;BMP280;47622;47.726;3.298;2023-02-01T09:08:06;100405.19;;;5.58
61703;BMP280;47622;47.726;3.298;2023-02-01T09:10:33;100406.63;;;5.65
61703;BMP280;47622;47.726;3.298;2023-02-01T09:12:59;100399.84;;;5.64
61703;BMP280;47622;47.726;3.298;2023-02-01T09:15:24;100400.97;;;5.68
61703;BMP280;47622;47.726;3.298;2023-02-01T09:17:50;100398.59;;;5.67
61703;BMP280;47622;47.726;3.298;2023-02-01T09:20:16;100392.78;;;5.77
61703;BMP280;47622;47.726;3.298;2023-02-01T09:22:41;100395.75;;;5.80
61703;BMP280;47622;47.726;3.298;2023-02-01T09:25:07;100407.84;;;5.86
61703;BMP280;47622;47.726;3.298;2023-02-01T09:27:34;100405.06;;;5.93
61703;BMP280;47622;47.726;3.298;2023-02-01T09:30:00;100409.59;;;5.97
61703;BMP280;47622;47.726;3.298;2023-02-01T09:32:26;100405.28;;;6.03
61703;BMP280;47622;47.726;3.298;2023-02-01T09:34:52;100393.28;;;6.02
61703;BMP280;47622;47.726;3.298;2023-02-01T09:37:19;100400.75;;;5.98
61703;BMP280;47622;47.726;3.298;2023-02-01T09:39:45;100398.56;;;6.07
61703;BMP280;47622;47.726;3.298;2023-02-01T09:47:54;100400.13;;;6.08
61703;BMP280;47622;47.726;3.298;2023-02-01T09:50:28;100405.81;;;6.05
61703;BMP280;47622;47.726;3.298;2023-02-01T09:53:00;100408.97;;;6.07
61703;BMP280;47622;47.726;3.298;2023-02-01T09:55:40;100414.03;;;6.14
61703;BMP280;47622;47.726;3.298;2023-02-01T09:58:14;100412.91;;;6.10
61703;BMP280;47622;47.726;3.298;2023-02-01T10:00:50;100418.13;;;6.10
61703;BMP280;47622;47.726;3.298;2023-02-01T10:03:17;100416.88;;;6.12
61703;BMP280;47622;47.726;3.298;2023-02-01T10:13:52;100416.47;;;6.20
61703;BMP280;47622;47.726;3.298;2023-02-01T10:16:36;100427.63;;;6.33
61703;BMP280;47622;47.726;3.298;2023-02-01T10:26:50;100440.59;;;6.61
61703;BMP280;47622;47.726;3.298;2023-02-01T10:29:20;100436.03;;;6.68
61703;BMP280;47622;47.726;3.298;2023-02-01T10:31:47;100447.94;;;6.64
61703;BMP280;47622;47.726;3.298;2023-02-01T10:36:55;100447.00;;;6.70
61703;BMP280;47622;47.726;3.298;2023-02-01T10:39:22;100447.00;;;6.70
61703;BMP280;47622;47.726;3.298;2023-02-01T10:41:48;100447.41;;;6.79
61703;BMP280;47622;47.726;3.298;2023-02-01T10:44:18;100443.59;;;6.87
61703;BMP280;47622;47.726;3.298;2023-02-01T10:46:45;100447.88;;;6.93
61703;BMP280;47622;47.726;3.298;2023-02-01T10:49:26;100450.69;;;6.91
61703;BMP280;47622;47.726;3.298;2023-02-01T10:51:59;100449.22;;;6.95
61703;BMP280;47622;47.726;3.298;2023-02-01T10:54:36;100451.09;;;7.00
61703;BMP280;47622;47.726;3.298;2023-02-01T10:57:10;100460.34;;;6.91
61703;BMP280;47622;47.726;3.298;2023-02-01T10:59:44;100446.41;;;7.02
61703;BMP280;47622;47.726;3.298;2023-02-01T11:05:03;100446.88;;;7.16
61703;BMP280;47622;47.726;3.298;2023-02-01T11:07:29;100444.03;;;7.17
61703;BMP280;47622;47.726;3.298;2023-02-01T11:09:56;100433.72;;;7.27
61703;BMP280;47622;47.726;3.298;2023-02-01T11:12:35;100440.66;;;7.38
61703;BMP280;47622;47.726;3.298;2023-02-01T11:15:18;100431.13;;;7.49
61703;BMP280;47622;47.726;3.298;2023-02-01T11:17:46;100431.25;;;7.37
61703;BMP280;47622;47.726;3.298;2023-02-01T11:20:21;100435.75;;;7.42
61703;BMP280;47622;47.726;3.298;2023-02-01T11:22:55;100435.91;;;7.35
61703;BMP280;47622;47.726;3.298;2023-02-01T11:25:23;100436.56;;;7.26
61703;BMP280;47622;47.726;3.298;2023-02-01T11:27:51;100429.97;;;7.18
61703;BMP280;47622;47.726;3.298;2023-02-01T11:30:28;100427.91;;;7.20
61703;BMP280;47622;47.726;3.298;2023-02-01T11:32:57;100424.88;;;7.28
61703;BMP280;47622;47.726;3.298;2023-02-01T11:35:23;100429.09;;;7.29
61703;BMP280;47622;47.726;3.298;2023-02-01T11:37:57;100428.19;;;7.24
61703;BMP280;47622;47.726;3.298;2023-02-01T11:40:37;100415.22;;;7.29
61703;BMP280;47622;47.726;3.298;2023-02-01T11:43:15;100414.31;;;7.18
61703;BMP280;47622;47.726;3.298;2023-02-01T11:45:57;100413.66;;;7.28
61703;BMP280;47622;47.726;3.298;2023-02-01T11:48:24;100415.41;;;7.22
61703;BMP280;47622;47.726;3.298;2023-02-01T11:51:19;100415.78;;;7.09
61703;BMP280;47622;47.726;3.298;2023-02-01T11:56:36;100393.47;;;7.01
61703;BMP280;47622;47.726;3.298;2023-02-01T11:59:52;100402.53;;;7.16
61703;BMP280;47622;47.726;3.298;2023-02-01T12:05:05;100387.50;;;7.23
61703;BMP280;47622;47.726;3.298;2023-02-01T12:10:27;100380.91;;;7.64
61703;BMP280;47622;47.726;3.298;2023-02-01T12:19:11;100364.69;;;8.16
61703;BMP280;47622;47.726;3.298;2023-02-01T12:27:05;100350.41;;;8.28
61703;BMP280;47622;47.726;3.298;2023-02-01T12:35:21;100342.38;;;8.40
61703;BMP280;47622;47.726;3.298;2023-02-01T12:45:58;100342.97;;;8.10
61703;BMP280;47622;47.726;3.298;2023-02-01T12:48:32;100351.19;;;8.29
61703;BMP280;47622;47.726;3.298;2023-02-01T12:56:19;100341.16;;;8.16
61703;BMP280;47622;47.726;3.298;2023-02-01T12:58:55;100338.06;;;8.24
61703;BMP280;47622;47.726;3.298;2023-02-01T13:01:38;100342.31;;;8.30
61703;BMP280;47622;47.726;3.298;2023-02-01T13:07:11;100334.81;;;8.02
61703;BMP280;47622;47.726;3.298;2023-02-01T13:09:49;100332.78;;;7.82
61703;BMP280;47622;47.726;3.298;2023-02-01T13:12:22;100329.03;;;7.67
61703;BMP280;47622;47.726;3.298;2023-02-01T13:14:53;100323.75;;;7.62
61703;BMP280;47622;47.726;3.298;2023-02-01T13:17:26;100316.69;;;7.63
61703;BMP280;47622;47.726;3.298;2023-02-01T13:19:57;100301.03;;;7.63
61703;BMP280;47622;47.726;3.298;2023-02-01T13:25:46;100307.63;;;7.43
61703;BMP280;47622;47.726;3.298;2023-02-01T13:27:46;100311.84;;;7.50
61703;BMP280;47622;47.726;3.298;2023-02-01T13:39:06;100293.28;;;7.41
61703;BMP280;47622;47.726;3.298;2023-02-01T13:44:29;100307.28;;;7.57
61703;BMP280;47622;47.726;3.298;2023-02-01T13:46:59;100300.41;;;7.51
61703;BMP280;47622;47.726;3.298;2023-02-01T13:49:30;100308.84;;;7.58
61703;BMP280;47622;47.726;3.298;2023-02-01T13:51:58;100305.59;;;7.46
61703;BMP280;47622;47.726;3.298;2023-02-01T13:56:52;100309.91;;;7.35
61703;BMP280;47622;47.726;3.298;2023-02-01T14:05:04;100289.38;;;7.43
61703;BMP280;47622;47.726;3.298;2023-02-01T14:07:32;100298.78;;;7.45
61703;BMP280;47622;47.726;3.298;2023-02-01T14:09:58;100296.59;;;7.36
61703;BMP280;47622;47.726;3.298;2023-02-01T14:12:44;100298.19;;;7.37
61703;BMP280;47622;47.726;3.298;2023-02-01T14:15:27;100302.44;;;7.43
61703;BMP280;47622;47.726;3.298;2023-02-01T14:17:54;100301.16;;;7.46
61703;BMP280;47622;47.726;3.298;2023-02-01T14:20:40;100304.03;;;7.50
61703;BMP280;47622;47.726;3.298;2023-02-01T14:23:13;100298.28;;;7.48
61703;BMP280;47622;47.726;3.298;2023-02-01T14:25:39;100300.41;;;7.51
61703;BMP280;47622;47.726;3.298;2023-02-01T14:28:24;100304.19;;;7.38
61703;BMP280;47622;47.726;3.298;2023-02-01T14:30:50;100310.25;;;7.43
61703;BMP280;47622;47.726;3.298;2023-02-01T14:33:27;100320.22;;;7.47
61703;BMP280;47622;47.726;3.298;2023-02-01T14:36:19;100315.41;;;7.38
61703;BMP280;47622;47.726;3.298;2023-02-01T14:38:49;100315.41;;;7.38
61703;BMP280;47622;47.726;3.298;2023-02-01T14:41:35;100306.31;;;7.41
61703;BMP280;47622;47.726;3.298;2023-02-01T14:49:33;100310.16;;;7.33
61703;BMP280;47622;47.726;3.298;2023-02-01T14:52:02;100311.69;;;7.29
61703;BMP280;47622;47.726;3.298;2023-02-01T14:54:30;100302.19;;;7.23
61703;BMP280;47622;47.726;3.298;2023-02-01T14:56:56;100315.78;;;7.25
61703;BMP280;47622;47.726;3.298;2023-02-01T14:59:23;100307.63;;;7.17
61703;BMP280;47622;47.726;3.298;2023-02-01T15:01:53;100315.78;;;7.25
61703;BMP280;47622;47.726;3.298;2023-02-01T15:04:20;100302.91;;;7.13
61703;BMP280;47622;47.726;3.298;2023-02-01T15:06:54;100306.28;;;7.14
61703;BMP280;47622;47.726;3.298;2023-02-01T15:14:34;100298.97;;;7.11
61703;BMP280;47622;47.726;3.298;2023-02-01T15:17:01;100295.81;;;7.09
61703;BMP280;47622;47.726;3.298;2023-02-01T15:19:28;100300.00;;;7.10
61703;BMP280;47622;47.726;3.298;2023-02-01T15:21:56;100303.97;;;7.18
61703;BMP280;47622;47.726;3.298;2023-02-01T15:24:27;100307.28;;;7.13
61703;BMP280;47622;47.726;3.298;2023-02-01T15:26:54;100307.53;;;7.11
61703;BMP280;47622;47.726;3.298;2023-02-01T15:29:22;100305.72;;;7.12
61703;BMP280;47622;47.726;3.298;2023-02-01T15:31:51;100306.34;;;7.19
61703;BMP280;47622;47.726;3.298;2023-02-01T15:34:18;100301.56;;;7.11
61703;BMP280;47622;47.726;3.298;2023-02-01T15:36:45;100303.38;;;7.10
61703;BMP280;47622;47.726;3.298;2023-02-01T15:39:24;100306.09;;;6.99
61703;BMP280;47622;47.726;3.298;2023-02-01T15:42:00;100307.44;;;7.01
61703;BMP280;47622;47.726;3.298;2023-02-01T15:46:58;100321.13;;;6.92
61703;BMP280;47622;47.726;3.298;2023-02-01T15:49:28;100314.84;;;6.88
61703;BMP280;47622;47.726;3.298;2023-02-01T15:51:55;100318.31;;;6.93
61703;BMP280;47622;47.726;3.298;2023-02-01T15:54:31;100313.38;;;6.97
61703;BMP280;47622;47.726;3.298;2023-02-01T15:57:00;100317.53;;;6.93
61703;BMP280;47622;47.726;3.298;2023-02-01T15:59:34;100314.28;;;6.85
61703;BMP280;47622;47.726;3.298;2023-02-01T16:02:00;100316.81;;;6.80
61703;BMP280;47622;47.726;3.298;2023-02-01T16:04:28;100311.53;;;6.75
61703;BMP280;47622;47.726;3.298;2023-02-01T16:07:03;100311.53;;;6.75
61703;BMP280;47622;47.726;3.298;2023-02-01T16:09:54;100317.53;;;6.76
61703;BMP280;47622;47.726;3.298;2023-02-01T16:12:54;100314.69;;;6.77
61703;BMP280;47622;47.726;3.298;2023-02-01T16:15:23;100308.38;;;6.73
61703;BMP280;47622;47.726;3.298;2023-02-01T16:17:49;100302.09;;;6.69
61703;BMP280;47622;47.726;3.298;2023-02-01T16:20:15;100305.25;;;6.71
61703;BMP280;47622;47.726;3.298;2023-02-01T16:22:40;100308.56;;;6.67
61703;BMP280;47622;47.726;3.298;2023-02-01T16:25:06;100311.59;;;6.59
61703;BMP280;47622;47.726;3.298;2023-02-01T16:27:32;100314.97;;;6.59
61703;BMP280;47622;47.726;3.298;2023-02-01T16:29:58;100314.56;;;6.67
61703;BMP280;47622;47.726;3.298;2023-02-01T16:32:23;100316.16;;;6.51
61703;BMP280;47622;47.726;3.298;2023-02-01T16:34:49;100327.84;;;6.49
61703;BMP280;47622;47.726;3.298;2023-02-01T16:37:21;100326.22;;;6.43
61703;BMP280;47622;47.726;3.298;2023-02-01T16:39:48;100334.50;;;6.40
61703;BMP280;47622;47.726;3.298;2023-02-01T16:42:15;100333.38;;;6.36